createdAt,value
2023-02-17T00:02:03.217Z,26.30
2023-02-17T00:05:25.877Z,26.30
2023-02-17T00:08:48.011Z,26.30
2023-02-17T00:12:09.794Z,26.30
2023-02-17T00:15:31.755Z,26.29
2023-02-17T00:18:59.406Z,26.29
2023-02-17T00:22:21.387Z,26.28
2023-02-17T00:25:43.371Z,26.28
2023-02-17T00:29:05.095Z,26.28
2023-02-17T00:32:27.377Z,26.27
2023-02-17T00:35:49.290Z,26.27
2023-02-17T00:39:17.822Z,26.27
2023-02-17T00:42:39.619Z,26.26
2023-02-17T00:46:04.182Z,26.27
2023-02-17T00:49:27.424Z,26.27
2023-02-17T00:52:49.192Z,26.26
2023-02-17T00:56:11.505Z,26.27
2023-02-17T00:59:33.302Z,26.26
2023-02-17T01:02:55.095Z,26.26
2023-02-17T01:06:27.501Z,26.25
2023-02-17T01:09:49.384Z,26.26
2023-02-17T01:13:12.282Z,26.26
2023-02-17T01:16:39.114Z,26.26
2023-02-17T01:20:00.921Z,26.25
2023-02-17T01:23:22.702Z,26.24
2023-02-17T01:26:48.404Z,26.24
2023-02-17T01:30:10.655Z,26.24
2023-02-17T01:33:32.455Z,26.24
2023-02-17T01:36:54.299Z,26.23
2023-02-17T01:40:17.215Z,26.23
2023-02-17T01:43:39.181Z,26.23
2023-02-17T01:47:00.990Z,26.23
2023-02-17T01:50:25.509Z,26.24
2023-02-17T01:53:57.763Z,26.24
2023-02-17T01:57:22.372Z,26.24
2023-02-17T02:00:46.960Z,26.23
2023-02-17T02:04:11.236Z,26.23
2023-02-17T02:07:39.535Z,26.23
2023-02-17T02:11:03.343Z,26.23
2023-02-17T02:14:25.142Z,26.23
2023-02-17T02:18:15.135Z,26.24
2023-02-17T02:21:48.769Z,26.24
2023-02-17T02:26:08.200Z,26.24
2023-02-17T02:30:02.434Z,26.24
2023-02-17T02:33:37.153Z,26.25
2023-02-17T02:37:13.064Z,26.26
2023-02-17T02:40:37.500Z,26.25
2023-02-17T02:43:59.528Z,26.25
2023-02-17T02:47:43.449Z,26.24
2023-02-17T02:51:10.891Z,26.24
2023-02-17T02:54:52.606Z,26.25
2023-02-17T02:58:25.729Z,26.25
2023-02-17T03:02:00.069Z,26.24
2023-02-17T03:05:48.245Z,26.26
2023-02-17T03:09:16.967Z,26.25
2023-02-17T03:12:40.398Z,26.26
2023-02-17T03:16:02.180Z,26.26
2023-02-17T03:19:24.975Z,26.27
2023-02-17T03:22:47.943Z,26.26
2023-02-17T03:26:09.863Z,26.26
2023-02-17T03:29:31.715Z,26.27
2023-02-17T03:32:53.793Z,26.26
2023-02-17T03:36:15.597Z,26.28
2023-02-17T03:39:37.350Z,26.28
2023-02-17T03:42:59.147Z,26.29
2023-02-17T03:46:21.636Z,26.31
2023-02-17T03:49:43.454Z,26.31
2023-02-17T03:53:05.326Z,26.33
2023-02-17T03:56:27.063Z,26.33
2023-02-17T03:59:48.844Z,26.33
2023-02-17T04:03:10.579Z,26.34
2023-02-17T04:06:32.442Z,26.36
2023-02-17T04:09:54.198Z,26.38
2023-02-17T04:13:15.994Z,26.39
2023-02-17T04:16:39.323Z,26.41
2023-02-17T04:20:01.097Z,26.43
2023-02-17T04:23:22.922Z,26.44
2023-02-17T04:26:44.677Z,26.47
2023-02-17T04:30:07.276Z,26.47
2023-02-17T04:33:29.112Z,26.48
2023-02-17T04:36:50.829Z,26.50
2023-02-17T04:40:13.011Z,26.52
2023-02-17T04:43:34.815Z,26.54
2023-02-17T04:46:56.558Z,26.55
2023-02-17T04:50:20.868Z,26.56
2023-02-17T04:53:42.785Z,26.58
2023-02-17T04:57:05.260Z,26.60
2023-02-17T05:00:27.163Z,26.61
2023-02-17T05:03:49.137Z,26.62
2023-02-17T05:07:10.854Z,26.63
2023-02-17T05:10:35.471Z,26.66
2023-02-17T05:13:57.478Z,26.67
2023-02-17T05:17:19.188Z,26.69
2023-02-17T05:20:41.114Z,26.71
2023-02-17T05:24:02.901Z,26.73
2023-02-17T05:27:25.161Z,26.75
2023-02-17T05:30:49.474Z,26.77
2023-02-17T05:34:11.309Z,26.80
2023-02-17T05:37:33.074Z,26.83
2023-02-17T05:40:54.810Z,26.85
2023-02-17T05:44:16.609Z,26.87
2023-02-17T05:47:38.380Z,26.89
2023-02-17T05:51:00.326Z,26.93
2023-02-17T05:54:22.101Z,26.91
2023-02-17T05:57:43.853Z,26.93
2023-02-17T06:01:14.631Z,26.96
2023-02-17T06:04:39.418Z,26.96
2023-02-17T06:08:01.244Z,26.98
2023-02-17T06:11:23.094Z,27.00
2023-02-17T06:14:44.821Z,27.01
2023-02-17T06:18:06.545Z,27.03
2023-02-17T06:21:28.952Z,27.04
2023-02-17T06:24:50.738Z,27.05
2023-02-17T06:28:12.469Z,27.06
2023-02-17T06:31:34.346Z,27.06
2023-02-17T06:34:56.880Z,27.07
2023-02-17T06:38:19.142Z,27.08
2023-02-17T06:41:42.781Z,27.08
2023-02-17T06:45:06.218Z,27.08
2023-02-17T06:48:28.064Z,27.10
2023-02-17T06:51:49.864Z,27.09
2023-02-17T06:55:11.618Z,27.08
2023-02-17T06:58:35.460Z,27.07
2023-02-17T07:01:57.262Z,27.06
2023-02-17T07:05:28.139Z,27.05
2023-02-17T07:08:50.297Z,27.03
2023-02-17T07:12:12.153Z,27.02
2023-02-17T07:15:33.952Z,26.99
2023-02-17T07:18:55.901Z,26.96
2023-02-17T07:22:18.041Z,26.94
2023-02-17T07:25:39.753Z,26.92
2023-02-17T07:29:01.852Z,26.87
2023-02-17T07:32:23.804Z,26.81
2023-02-17T07:35:45.662Z,26.71
2023-02-17T07:39:07.415Z,26.65
2023-02-17T07:42:29.308Z,26.58
2023-02-17T07:45:54.812Z,26.53
2023-02-17T07:49:17.843Z,26.50
2023-02-17T07:52:39.582Z,26.50
2023-02-17T07:56:06.026Z,26.50
2023-02-17T07:59:28.018Z,26.50
2023-02-17T08:02:52.579Z,26.49
2023-02-17T08:06:17.377Z,26.47
2023-02-17T08:09:57.740Z,26.48
2023-02-17T08:13:19.504Z,26.45
2023-02-17T08:16:41.766Z,26.43
2023-02-17T08:20:08.625Z,26.39
2023-02-17T08:23:30.643Z,26.37
2023-02-17T08:26:52.539Z,26.35
2023-02-17T08:30:16.127Z,26.33
2023-02-17T08:33:38.766Z,26.32
2023-02-17T08:37:05.358Z,26.32
2023-02-17T08:40:27.499Z,26.32
2023-02-17T08:43:49.972Z,26.33
2023-02-17T08:47:12.048Z,26.32
2023-02-17T08:50:34.039Z,26.29
2023-02-17T08:53:57.809Z,26.27
2023-02-17T08:57:20.851Z,26.26
2023-02-17T09:00:43.332Z,26.22
2023-02-17T09:04:08.000Z,26.20
2023-02-17T09:07:29.804Z,26.19
2023-02-17T09:10:51.921Z,26.17
2023-02-17T09:14:14.100Z,26.16
2023-02-17T09:17:39.964Z,26.15
2023-02-17T09:21:10.456Z,26.15
2023-02-17T09:24:34.242Z,26.16
2023-02-17T09:27:57.119Z,26.20
2023-02-17T09:31:25.929Z,26.23
2023-02-17T09:34:50.835Z,26.25
2023-02-17T09:38:12.608Z,26.29
2023-02-17T09:41:47.984Z,26.30
2023-02-17T09:45:26.606Z,26.34
2023-02-17T09:48:53.008Z,26.36
2023-02-17T09:52:22.624Z,26.38
2023-02-17T09:55:49.738Z,26.40
2023-02-17T09:59:19.036Z,26.41
2023-02-17T10:03:11.966Z,26.42
2023-02-17T10:06:38.051Z,26.45
2023-02-17T10:10:12.314Z,26.47
2023-02-17T10:13:35.054Z,26.48
2023-02-17T10:17:08.686Z,26.50
2023-02-17T10:20:33.887Z,26.53
2023-02-17T10:23:55.636Z,26.57
2023-02-17T10:27:45.000Z,26.61
2023-02-17T10:31:11.128Z,26.65
2023-02-17T10:34:38.848Z,26.71
2023-02-17T10:38:15.801Z,26.76
2023-02-17T10:41:38.564Z,26.79
2023-02-17T10:45:06.891Z,26.83
2023-02-17T10:48:35.469Z,26.83
2023-02-17T10:52:01.932Z,26.87
2023-02-17T10:55:33.725Z,26.89
2023-02-17T10:59:00.487Z,26.91
2023-02-17T11:02:34.735Z,26.92
2023-02-17T11:06:05.787Z,26.92
2023-02-17T11:09:32.739Z,26.91
2023-02-17T11:16:47.157Z,26.92
2023-02-17T11:20:15.532Z,26.94
2023-02-17T11:23:50.336Z,26.96
2023-02-17T11:27:12.666Z,27.00
2023-02-17T11:30:35.739Z,27.06
2023-02-17T11:33:58.292Z,27.31
2023-02-17T11:37:27.227Z,27.42
2023-02-17T11:40:53.886Z,27.47
2023-02-17T11:44:28.994Z,27.52
2023-02-17T11:48:07.244Z,27.55
2023-02-17T11:51:56.770Z,27.54
2023-02-17T11:55:23.794Z,27.56
2023-02-17T11:59:01.770Z,27.58
2023-02-17T12:02:41.166Z,27.59
2023-02-17T12:06:06.194Z,27.61
2023-02-17T12:09:50.703Z,27.62
2023-02-17T12:13:37.975Z,27.64
2023-02-17T12:17:21.803Z,27.68
2023-02-17T12:21:02.023Z,27.69
2023-02-17T12:24:41.029Z,27.74
2023-02-17T12:28:30.974Z,27.75
2023-02-17T12:31:55.492Z,27.79
2023-02-17T12:35:22.782Z,27.82
2023-02-17T12:38:50.706Z,27.85
2023-02-17T12:42:34.090Z,27.90
2023-02-17T12:45:58.714Z,27.90
2023-02-17T12:49:25.791Z,27.92
2023-02-17T12:52:50.301Z,27.96
2023-02-17T12:56:31.469Z,28.00
2023-02-17T12:59:54.217Z,28.06
2023-02-17T13:03:16.117Z,28.71
2023-02-17T13:06:43.359Z,29.11
2023-02-17T13:10:06.470Z,29.44
2023-02-17T13:13:30.961Z,29.70
2023-02-17T13:16:53.416Z,29.97
2023-02-17T13:20:15.978Z,30.52
2023-02-17T13:23:41.236Z,30.82
2023-02-17T13:27:28.103Z,31.07
2023-02-17T13:30:54.733Z,31.39
2023-02-17T13:34:31.592Z,31.62
2023-02-17T13:37:54.522Z,31.84
2023-02-17T13:41:16.643Z,32.06
2023-02-17T13:44:42.086Z,32.25
2023-02-17T13:48:17.586Z,32.47
2023-02-17T13:51:39.461Z,32.69
2023-02-17T13:55:04.718Z,32.84
2023-02-17T13:58:35.665Z,32.98
2023-02-17T14:01:57.501Z,33.26
2023-02-17T14:05:23.934Z,33.56
2023-02-17T14:08:45.803Z,33.82
2023-02-17T14:12:11.515Z,33.78
2023-02-17T14:15:33.563Z,33.60
2023-02-17T14:19:21.506Z,33.39
2023-02-17T14:22:48.719Z,33.15
2023-02-17T14:26:38.953Z,32.97
2023-02-17T14:30:00.748Z,32.77
2023-02-17T14:33:25.156Z,32.63
2023-02-17T14:36:47.728Z,32.48
2023-02-17T14:40:18.282Z,32.36
2023-02-17T14:43:40.109Z,32.24
2023-02-17T14:47:02.577Z,32.14
2023-02-17T14:50:24.806Z,32.05
2023-02-17T14:53:47.328Z,31.95
2023-02-17T14:57:16.265Z,31.89
2023-02-17T15:00:38.316Z,31.81
2023-02-17T15:04:03.312Z,31.73
2023-02-17T15:07:25.437Z,31.67
2023-02-17T15:10:47.342Z,31.61
2023-02-17T15:14:13.925Z,31.54
2023-02-17T15:17:35.704Z,31.50
2023-02-17T15:20:58.004Z,31.48
2023-02-17T15:24:31.165Z,31.45
2023-02-17T15:27:54.465Z,31.44
2023-02-17T15:31:17.369Z,31.42
2023-02-17T15:34:39.276Z,31.38
2023-02-17T15:38:01.388Z,31.36
2023-02-17T15:41:26.294Z,31.35
2023-02-17T15:44:51.536Z,31.31
2023-02-17T15:48:26.594Z,31.28
2023-02-17T15:51:48.740Z,31.25
2023-02-17T15:55:10.763Z,31.24
2023-02-17T15:58:32.846Z,31.22
2023-02-17T16:02:01.471Z,31.22
2023-02-17T16:05:29.484Z,31.23
2023-02-17T16:08:51.305Z,31.21
2023-02-17T16:12:26.703Z,31.19
2023-02-17T16:15:51.066Z,31.17
2023-02-17T16:19:12.996Z,31.17
2023-02-17T16:22:34.938Z,31.14
2023-02-17T16:26:02.004Z,31.13
2023-02-17T16:29:24.479Z,31.13
2023-02-17T16:32:47.332Z,31.13
2023-02-17T16:36:15.134Z,31.15
2023-02-17T16:39:40.140Z,31.16
2023-02-17T16:43:03.012Z,31.17
2023-02-17T16:46:30.353Z,31.17
2023-02-17T16:49:52.807Z,31.19
2023-02-17T16:53:15.175Z,31.21
2023-02-17T16:56:42.275Z,31.21
2023-02-17T17:00:04.653Z,31.22
2023-02-17T17:03:26.595Z,31.27
2023-02-17T17:06:51.001Z,31.31
2023-02-17T17:10:19.129Z,31.29
2023-02-17T17:13:41.764Z,31.30
2023-02-17T17:17:03.677Z,31.32
2023-02-17T17:20:31.332Z,31.37
2023-02-17T17:23:53.256Z,31.41
2023-02-17T17:27:15.262Z,31.42
2023-02-17T17:30:37.363Z,31.44
2023-02-17T17:33:59.435Z,31.45
2023-02-17T17:37:21.350Z,31.45
2023-02-17T17:40:49.090Z,31.47
2023-02-17T17:44:11.242Z,31.47
2023-02-17T17:47:36.007Z,31.51
2023-02-17T17:50:57.775Z,31.52
2023-02-17T17:54:19.596Z,31.54
2023-02-17T17:57:41.964Z,31.52
2023-02-17T18:01:06.346Z,31.50
2023-02-17T18:04:28.323Z,31.51
2023-02-17T18:07:50.680Z,31.53
2023-02-17T18:11:17.753Z,31.62
2023-02-17T18:14:41.722Z,32.71
2023-02-17T18:18:05.000Z,33.13
2023-02-17T18:21:29.237Z,33.24
2023-02-17T18:24:51.181Z,33.29
2023-02-17T18:28:13.141Z,33.30
2023-02-17T18:31:35.232Z,33.27
2023-02-17T18:34:58.495Z,33.20
2023-02-17T18:38:20.359Z,33.14
2023-02-17T18:41:42.583Z,33.09
2023-02-17T18:45:05.054Z,33.04
2023-02-17T18:48:27.112Z,32.97
2023-02-17T18:51:49.206Z,32.93
2023-02-17T18:55:11.827Z,32.89
2023-02-17T18:58:33.899Z,32.88
2023-02-17T19:01:55.947Z,32.84
2023-02-17T19:05:20.811Z,32.81
2023-02-17T19:08:44.310Z,32.79
2023-02-17T19:12:10.776Z,32.78
2023-02-17T19:15:34.856Z,33.12
2023-02-17T19:18:57.885Z,33.34
2023-02-17T19:22:20.690Z,33.34
2023-02-17T19:25:43.053Z,33.32
2023-02-17T19:29:04.931Z,33.28
2023-02-17T19:36:21.801Z,33.20
2023-02-17T19:39:44.145Z,33.16
2023-02-17T19:43:06.294Z,33.12
2023-02-17T19:46:28.823Z,33.07
2023-02-17T19:49:50.868Z,33.06
2023-02-17T19:53:12.787Z,33.05
2023-02-17T19:56:36.314Z,33.03
2023-02-17T20:00:01.151Z,33.04
2023-02-17T20:03:22.916Z,33.04
2023-02-17T20:06:48.114Z,33.04
2023-02-17T20:10:11.436Z,33.03
2023-02-17T20:13:44.670Z,33.03
2023-02-17T20:17:08.003Z,33.03
2023-02-17T20:20:30.496Z,33.05
2023-02-17T20:23:52.778Z,33.05
2023-02-17T20:27:14.965Z,33.03
2023-02-17T20:30:39.060Z,32.98
2023-02-17T20:34:03.232Z,32.98
2023-02-17T20:37:25.215Z,32.98
2023-02-17T20:40:47.030Z,32.99
2023-02-17T20:44:11.455Z,32.99
2023-02-17T20:47:34.015Z,33.01
2023-02-17T20:50:57.224Z,33.02
2023-02-17T20:54:21.450Z,33.05
2023-02-17T20:57:43.981Z,33.06
2023-02-17T21:01:05.884Z,33.07
2023-02-17T21:04:28.251Z,33.05
2023-02-17T21:07:51.066Z,33.02
2023-02-17T21:11:12.986Z,33.01
2023-02-17T21:14:34.968Z,33.07
2023-02-17T21:17:57.303Z,34.00
2023-02-17T21:21:19.282Z,34.33
2023-02-17T21:24:41.053Z,34.31
2023-02-17T21:28:03.265Z,34.24
2023-02-17T21:31:27.599Z,34.17
2023-02-17T21:34:49.732Z,34.11
2023-02-17T21:38:12.337Z,34.06
2023-02-17T21:41:34.147Z,34.00
2023-02-17T21:44:55.984Z,33.97
2023-02-17T21:48:17.741Z,33.92
2023-02-17T21:51:40.927Z,33.87
2023-02-17T21:55:02.788Z,33.81
2023-02-17T21:58:25.076Z,33.77
2023-02-17T22:01:47.004Z,33.72
2023-02-17T22:05:08.955Z,33.67
2023-02-17T22:08:31.129Z,33.62
2023-02-17T22:11:52.969Z,33.58
2023-02-17T22:15:16.385Z,33.54
2023-02-17T22:18:38.681Z,33.50
2023-02-17T22:22:00.546Z,33.47
2023-02-17T22:25:31.049Z,33.43
2023-02-17T22:28:55.937Z,33.37
2023-02-17T22:32:17.740Z,33.34
2023-02-17T22:35:39.775Z,33.28
2023-02-17T22:39:02.339Z,33.21
2023-02-17T22:42:24.777Z,33.17
2023-02-17T22:45:46.757Z,33.10
2023-02-17T22:49:08.819Z,33.05
2023-02-17T22:52:31.084Z,33.01
2023-02-17T22:55:57.378Z,32.95
2023-02-17T22:59:19.435Z,32.91
2023-02-17T23:02:41.175Z,32.87
2023-02-17T23:06:10.144Z,32.84
2023-02-17T23:09:32.146Z,32.79
2023-02-17T23:12:56.342Z,32.77
2023-02-17T23:16:21.628Z,32.74
2023-02-17T23:19:43.545Z,32.70
2023-02-17T23:23:06.059Z,32.69
2023-02-17T23:26:28.071Z,32.65
2023-02-17T23:29:50.632Z,32.64
2023-02-17T23:33:12.457Z,32.59
2023-02-17T23:36:34.488Z,32.56
2023-02-17T23:40:01.936Z,32.51
2023-02-17T23:43:25.096Z,32.45
2023-02-17T23:46:47.187Z,32.39
2023-02-17T23:50:09.383Z,32.32
2023-02-17T23:53:31.966Z,32.24
2023-02-17T23:56:53.795Z,32.17
